sensor_id;sensor_type;location;lat;lon;timestamp;temperature;humidity
14995;DHT22;7593;49.006;8.372;2022-09-09T00:02:08;16.60;99.90
14995;DHT22;7593;49.006;8.372;2022-09-09T00:04:42;16.60;99.90
14995;DHT22;7593;49.006;8.372;2022-09-09T00:07:18;16.60;99.90
14995;DHT22;7593;49.006;8.372;2022-09-09T00:09:50;16.70;99.90
14995;DHT22;7593;49.006;8.372;2022-09-09T00:12:27;16.60;99.90
14995;DHT22;7593;49.006;8.372;2022-09-09T00:15:02;16.70;99.90
14995;DHT22;7593;49.006;8.372;2022-09-09T00:17:35;16.70;99.90
14995;DHT22;7593;49.006;8.372;2022-09-09T00:20:12;16.70;99.90
14995;DHT22;7593;49.006;8.372;2022-09-09T00:22:43;16.70;99.90
14995;DHT22;7593;49.006;8.372;2022-09-09T00:25:17;16.70;99.90
14995;DHT22;7593;49.006;8.372;2022-09-09T00:27:48;16.70;99.90
14995;DHT22;7593;49.006;8.372;2022-09-09T00:30:17;16.60;99.90
14995;DHT22;7593;49.006;8.372;2022-09-09T00:32:46;16.50;99.90
14995;DHT22;7593;49.006;8.372;2022-09-09T00:35:18;16.40;99.90
14995;DHT22;7593;49.006;8.372;2022-09-09T00:37:48;16.40;99.90
14995;DHT22;7593;49.006;8.372;2022-09-09T00:40:23;16.30;99.90
14995;DHT22;7593;49.006;8.372;2022-09-09T00:42:59;16.20;99.90
14995;DHT22;7593;49.006;8.372;2022-09-09T00:45:51;16.20;99.90
14995;DHT22;7593;49.006;8.372;2022-09-09T00:48:26;16.10;99.90
14995;DHT22;7593;49.006;8.372;2022-09-09T00:51:04;16.10;99.90
14995;DHT22;7593;49.006;8.372;2022-09-09T00:53:39;16.10;99.90
14995;DHT22;7593;49.006;8.372;2022-09-09T00:56:12;16.10;99.90
14995;DHT22;7593;49.006;8.372;2022-09-09T00:58:42;16.10;99.90
14995;DHT22;7593;49.006;8.372;2022-09-09T01:01:11;16.20;99.90
14995;DHT22;7593;49.006;8.372;2022-09-09T01:03:42;16.20;99.90
14995;DHT22;7593;49.006;8.372;2022-09-09T01:06:21;16.20;99.90
14995;DHT22;7593;49.006;8.372;2022-09-09T01:09:07;16.20;99.90
14995;DHT22;7593;49.006;8.372;2022-09-09T01:11:52;16.20;99.90
14995;DHT22;7593;49.006;8.372;2022-09-09T01:14:32;16.20;99.90
14995;DHT22;7593;49.006;8.372;2022-09-09T01:17:11;16.20;99.90
14995;DHT22;7593;49.006;8.372;2022-09-09T01:19:50;16.20;99.90
14995;DHT22;7593;49.006;8.372;2022-09-09T01:22:28;16.20;99.90
14995;DHT22;7593;49.006;8.372;2022-09-09T01:25:22;16.30;99.90
14995;DHT22;7593;49.006;8.372;2022-09-09T01:27:56;16.40;99.90
14995;DHT22;7593;49.006;8.372;2022-09-09T01:30:24;16.40;99.90
14995;DHT22;7593;49.006;8.372;2022-09-09T01:32:55;16.50;99.90
14995;DHT22;7593;49.006;8.372;2022-09-09T01:35:33;16.50;99.90
14995;DHT22;7593;49.006;8.372;2022-09-09T01:38:01;16.40;99.90
14995;DHT22;7593;49.006;8.372;2022-09-09T01:40:27;16.20;99.90
14995;DHT22;7593;49.006;8.372;2022-09-09T01:42:56;15.90;99.90
14995;DHT22;7593;49.006;8.372;2022-09-09T01:45:24;15.60;99.90
14995;DHT22;7593;49.006;8.372;2022-09-09T01:47:52;15.30;99.90
14995;DHT22;7593;49.006;8.372;2022-09-09T01:50:19;15.10;99.90
14995;DHT22;7593;49.006;8.372;2022-09-09T01:52:49;14.90;99.90
14995;DHT22;7593;49.006;8.372;2022-09-09T01:55:16;14.80;99.90
14995;DHT22;7593;49.006;8.372;2022-09-09T01:57:53;14.80;99.90
14995;DHT22;7593;49.006;8.372;2022-09-09T02:00:24;14.70;99.90
14995;DHT22;7593;49.006;8.372;2022-09-09T02:02:59;14.70;99.90
14995;DHT22;7593;49.006;8.372;2022-09-09T02:05:34;14.60;99.90
14995;DHT22;7593;49.006;8.372;2022-09-09T02:08:06;14.70;99.90
14995;DHT22;7593;49.006;8.372;2022-09-09T02:10:38;14.60;99.90
14995;DHT22;7593;49.006;8.372;2022-09-09T02:13:11;14.60;99.90
14995;DHT22;7593;49.006;8.372;2022-09-09T02:15:43;14.60;99.90
14995;DHT22;7593;49.006;8.372;2022-09-09T02:18:15;14.60;99.90
14995;DHT22;7593;49.006;8.372;2022-09-09T02:20:45;14.60;99.90
14995;DHT22;7593;49.006;8.372;2022-09-09T02:23:13;14.60;99.90
14995;DHT22;7593;49.006;8.372;2022-09-09T02:25:41;14.60;99.90
14995;DHT22;7593;49.006;8.372;2022-09-09T02:28:11;14.50;99.90
14995;DHT22;7593;49.006;8.372;2022-09-09T02:30:41;14.50;99.90
14995;DHT22;7593;49.006;8.372;2022-09-09T02:33:10;14.50;99.90
14995;DHT22;7593;49.006;8.372;2022-09-09T02:35:40;14.50;99.90
14995;DHT22;7593;49.006;8.372;2022-09-09T02:38:12;14.50;99.90
14995;DHT22;7593;49.006;8.372;2022-09-09T02:40:39;14.50;99.90
14995;DHT22;7593;49.006;8.372;2022-09-09T02:43:06;14.50;99.90
14995;DHT22;7593;49.006;8.372;2022-09-09T02:45:39;14.50;99.90
14995;DHT22;7593;49.006;8.372;2022-09-09T02:48:14;14.50;99.90
14995;DHT22;7593;49.006;8.372;2022-09-09T02:50:48;14.50;99.90
14995;DHT22;7593;49.006;8.372;2022-09-09T02:53:18;14.50;99.90
14995;DHT22;7593;49.006;8.372;2022-09-09T02:55:47;14.50;99.90
14995;DHT22;7593;49.006;8.372;2022-09-09T02:58:17;14.60;99.90
14995;DHT22;7593;49.006;8.372;2022-09-09T03:00:47;14.60;99.90
14995;DHT22;7593;49.006;8.372;2022-09-09T03:03:16;14.60;99.90
14995;DHT22;7593;49.006;8.372;2022-09-09T03:05:43;14.60;99.90
14995;DHT22;7593;49.006;8.372;2022-09-09T03:08:10;14.60;99.90
14995;DHT22;7593;49.006;8.372;2022-09-09T03:10:38;14.60;99.90
14995;DHT22;7593;49.006;8.372;2022-09-09T03:13:05;14.70;99.90
14995;DHT22;7593;49.006;8.372;2022-09-09T03:15:33;14.70;99.90
14995;DHT22;7593;49.006;8.372;2022-09-09T03:18:00;14.70;99.90
14995;DHT22;7593;49.006;8.372;2022-09-09T03:20:29;14.70;99.90
14995;DHT22;7593;49.006;8.372;2022-09-09T03:22:57;14.70;99.90
14995;DHT22;7593;49.006;8.372;2022-09-09T03:25:24;14.60;99.90
14995;DHT22;7593;49.006;8.372;2022-09-09T03:27:51;14.60;99.90
14995;DHT22;7593;49.006;8.372;2022-09-09T03:30:19;14.60;99.90
14995;DHT22;7593;49.006;8.372;2022-09-09T03:32:46;14.60;99.90
14995;DHT22;7593;49.006;8.372;2022-09-09T03:35:13;14.60;99.90
14995;DHT22;7593;49.006;8.372;2022-09-09T03:37:42;14.50;99.90
14995;DHT22;7593;49.006;8.372;2022-09-09T03:40:09;14.50;99.90
14995;DHT22;7593;49.006;8.372;2022-09-09T03:42:37;14.50;99.90
14995;DHT22;7593;49.006;8.372;2022-09-09T03:45:05;14.50;99.90
14995;DHT22;7593;49.006;8.372;2022-09-09T03:47:32;14.40;99.90
14995;DHT22;7593;49.006;8.372;2022-09-09T03:49:59;14.40;99.90
14995;DHT22;7593;49.006;8.372;2022-09-09T03:52:26;14.40;99.90
14995;DHT22;7593;49.006;8.372;2022-09-09T03:54:54;14.40;99.90
14995;DHT22;7593;49.006;8.372;2022-09-09T03:57:22;14.40;99.90
14995;DHT22;7593;49.006;8.372;2022-09-09T03:59:48;14.40;99.90
14995;DHT22;7593;49.006;8.372;2022-09-09T04:02:15;14.40;99.90
14995;DHT22;7593;49.006;8.372;2022-09-09T04:04:42;14.30;99.90
14995;DHT22;7593;49.006;8.372;2022-09-09T04:07:09;14.40;99.90
14995;DHT22;7593;49.006;8.372;2022-09-09T04:09:37;14.40;99.90
14995;DHT22;7593;49.006;8.372;2022-09-09T04:12:06;14.40;99.90
14995;DHT22;7593;49.006;8.372;2022-09-09T04:14:33;14.40;99.90
14995;DHT22;7593;49.006;8.372;2022-09-09T04:16:59;14.50;99.90
14995;DHT22;7593;49.006;8.372;2022-09-09T04:19:26;14.50;99.90
14995;DHT22;7593;49.006;8.372;2022-09-09T04:21:53;14.60;99.90
14995;DHT22;7593;49.006;8.372;2022-09-09T04:24:20;14.60;99.90
14995;DHT22;7593;49.006;8.372;2022-09-09T04:26:47;14.60;99.90
14995;DHT22;7593;49.006;8.372;2022-09-09T04:29:15;14.60;99.90
14995;DHT22;7593;49.006;8.372;2022-09-09T04:31:41;14.60;99.90
14995;DHT22;7593;49.006;8.372;2022-09-09T04:34:08;14.60;99.90
14995;DHT22;7593;49.006;8.372;2022-09-09T04:36:35;14.70;99.90
14995;DHT22;7593;49.006;8.372;2022-09-09T04:39:02;14.70;99.90
14995;DHT22;7593;49.006;8.372;2022-09-09T04:41:29;14.70;99.90
14995;DHT22;7593;49.006;8.372;2022-09-09T04:43:56;14.70;99.90
14995;DHT22;7593;49.006;8.372;2022-09-09T04:46:25;14.70;99.90
14995;DHT22;7593;49.006;8.372;2022-09-09T04:48:52;14.80;99.90
14995;DHT22;7593;49.006;8.372;2022-09-09T04:51:19;14.80;99.90
14995;DHT22;7593;49.006;8.372;2022-09-09T04:53:46;14.80;99.90
14995;DHT22;7593;49.006;8.372;2022-09-09T04:56:15;14.80;99.90
14995;DHT22;7593;49.006;8.372;2022-09-09T04:58:42;14.80;99.90
14995;DHT22;7593;49.006;8.372;2022-09-09T05:01:11;14.80;99.90
14995;DHT22;7593;49.006;8.372;2022-09-09T05:03:39;14.80;99.90
14995;DHT22;7593;49.006;8.372;2022-09-09T05:06:07;14.80;99.90
14995;DHT22;7593;49.006;8.372;2022-09-09T05:08:35;14.90;99.90
14995;DHT22;7593;49.006;8.372;2022-09-09T05:11:02;14.90;99.90
14995;DHT22;7593;49.006;8.372;2022-09-09T05:13:29;14.90;99.90
14995;DHT22;7593;49.006;8.372;2022-09-09T05:15:57;14.90;99.90
14995;DHT22;7593;49.006;8.372;2022-09-09T05:18:24;14.90;99.90
14995;DHT22;7593;49.006;8.372;2022-09-09T05:20:52;14.90;99.90
14995;DHT22;7593;49.006;8.372;2022-09-09T05:23:24;14.90;99.90
14995;DHT22;7593;49.006;8.372;2022-09-09T05:25:55;15.00;99.90
14995;DHT22;7593;49.006;8.372;2022-09-09T05:28:23;15.00;99.90
14995;DHT22;7593;49.006;8.372;2022-09-09T05:30:58;15.00;99.90
14995;DHT22;7593;49.006;8.372;2022-09-09T05:33:26;15.10;99.90
14995;DHT22;7593;49.006;8.372;2022-09-09T05:35:58;15.10;99.90
14995;DHT22;7593;49.006;8.372;2022-09-09T05:38:27;15.00;99.90
14995;DHT22;7593;49.006;8.372;2022-09-09T05:40:54;15.10;99.90
14995;DHT22;7593;49.006;8.372;2022-09-09T05:43:22;15.10;99.90
14995;DHT22;7593;49.006;8.372;2022-09-09T05:45:59;15.10;99.90
14995;DHT22;7593;49.006;8.372;2022-09-09T05:48:28;15.10;99.90
14995;DHT22;7593;49.006;8.372;2022-09-09T05:50:55;15.20;99.90
14995;DHT22;7593;49.006;8.372;2022-09-09T05:53:23;15.20;99.90
14995;DHT22;7593;49.006;8.372;2022-09-09T05:55:49;15.20;99.90
14995;DHT22;7593;49.006;8.372;2022-09-09T05:58:16;15.30;99.90
14995;DHT22;7593;49.006;8.372;2022-09-09T06:00:43;15.80;99.90
14995;DHT22;7593;49.006;8.372;2022-09-09T06:03:10;16.60;99.90
14995;DHT22;7593;49.006;8.372;2022-09-09T06:05:37;17.30;99.90
14995;DHT22;7593;49.006;8.372;2022-09-09T06:08:04;17.60;99.90
14995;DHT22;7593;49.006;8.372;2022-09-09T06:10:32;17.50;99.90
14995;DHT22;7593;49.006;8.372;2022-09-09T06:13:00;17.30;99.90
14995;DHT22;7593;49.006;8.372;2022-09-09T06:15:27;17.10;99.90
14995;DHT22;7593;49.006;8.372;2022-09-09T06:17:55;17.00;99.90
14995;DHT22;7593;49.006;8.372;2022-09-09T06:20:22;16.90;99.90
14995;DHT22;7593;49.006;8.372;2022-09-09T06:22:49;16.90;99.90
14995;DHT22;7593;49.006;8.372;2022-09-09T06:25:16;16.90;99.90
14995;DHT22;7593;49.006;8.372;2022-09-09T06:27:48;16.90;99.90
14995;DHT22;7593;49.006;8.372;2022-09-09T06:30:15;16.90;99.90
14995;DHT22;7593;49.006;8.372;2022-09-09T06:32:43;16.90;99.90
14995;DHT22;7593;49.006;8.372;2022-09-09T06:35:10;16.90;99.90
14995;DHT22;7593;49.006;8.372;2022-09-09T06:37:37;16.90;99.90
14995;DHT22;7593;49.006;8.372;2022-09-09T06:40:04;17.00;99.90
14995;DHT22;7593;49.006;8.372;2022-09-09T06:42:31;17.10;99.90
14995;DHT22;7593;49.006;8.372;2022-09-09T06:44:59;17.20;99.90
14995;DHT22;7593;49.006;8.372;2022-09-09T06:47:28;17.30;99.90
14995;DHT22;7593;49.006;8.372;2022-09-09T06:49:55;17.40;99.90
14995;DHT22;7593;49.006;8.372;2022-09-09T06:52:22;17.50;99.90
14995;DHT22;7593;49.006;8.372;2022-09-09T06:54:50;17.60;99.90
14995;DHT22;7593;49.006;8.372;2022-09-09T06:57:16;17.50;99.90
14995;DHT22;7593;49.006;8.372;2022-09-09T06:59:43;17.50;99.90
14995;DHT22;7593;49.006;8.372;2022-09-09T07:02:11;17.50;99.90
14995;DHT22;7593;49.006;8.372;2022-09-09T07:04:38;17.50;99.90
14995;DHT22;7593;49.006;8.372;2022-09-09T07:07:05;17.60;99.90
14995;DHT22;7593;49.006;8.372;2022-09-09T07:09:33;17.70;99.90
14995;DHT22;7593;49.006;8.372;2022-09-09T07:12:00;17.80;99.90
14995;DHT22;7593;49.006;8.372;2022-09-09T07:14:27;18.00;99.90
14995;DHT22;7593;49.006;8.372;2022-09-09T07:16:53;18.50;99.90
14995;DHT22;7593;49.006;8.372;2022-09-09T07:19:21;18.80;99.90
14995;DHT22;7593;49.006;8.372;2022-09-09T07:21:48;19.00;99.90
14995;DHT22;7593;49.006;8.372;2022-09-09T07:24:15;19.20;99.90
14995;DHT22;7593;49.006;8.372;2022-09-09T07:26:42;19.20;99.90
14995;DHT22;7593;49.006;8.372;2022-09-09T07:29:11;19.00;99.90
14995;DHT22;7593;49.006;8.372;2022-09-09T07:31:39;18.80;99.90
14995;DHT22;7593;49.006;8.372;2022-09-09T07:34:06;18.60;99.90
14995;DHT22;7593;49.006;8.372;2022-09-09T07:36:35;18.50;99.90
14995;DHT22;7593;49.006;8.372;2022-09-09T07:39:05;18.30;99.90
14995;DHT22;7593;49.006;8.372;2022-09-09T07:41:35;18.10;99.90
14995;DHT22;7593;49.006;8.372;2022-09-09T07:44:05;18.00;99.90
14995;DHT22;7593;49.006;8.372;2022-09-09T07:46:33;18.10;99.90
14995;DHT22;7593;49.006;8.372;2022-09-09T07:49:00;18.30;99.90
14995;DHT22;7593;49.006;8.372;2022-09-09T07:51:28;18.40;99.90
14995;DHT22;7593;49.006;8.372;2022-09-09T07:53:58;18.40;99.90
14995;DHT22;7593;49.006;8.372;2022-09-09T07:56:26;18.50;99.90
14995;DHT22;7593;49.006;8.372;2022-09-09T07:58:54;18.50;99.90
14995;DHT22;7593;49.006;8.372;2022-09-09T08:01:23;19.00;99.90
14995;DHT22;7593;49.006;8.372;2022-09-09T08:03:54;19.70;99.90
14995;DHT22;7593;49.006;8.372;2022-09-09T08:06:21;20.00;99.90
14995;DHT22;7593;49.006;8.372;2022-09-09T08:08:51;20.00;99.90
14995;DHT22;7593;49.006;8.372;2022-09-09T08:11:19;20.00;99.90
14995;DHT22;7593;49.006;8.372;2022-09-09T08:13:46;19.90;99.90
14995;DHT22;7593;49.006;8.372;2022-09-09T08:16:16;19.70;99.90
14995;DHT22;7593;49.006;8.372;2022-09-09T08:18:44;19.70;99.90
14995;DHT22;7593;49.006;8.372;2022-09-09T08:21:13;20.00;99.90
14995;DHT22;7593;49.006;8.372;2022-09-09T08:23:41;20.40;99.90
14995;DHT22;7593;49.006;8.372;2022-09-09T08:26:11;20.50;99.90
14995;DHT22;7593;49.006;8.372;2022-09-09T08:28:39;20.40;99.90
14995;DHT22;7593;49.006;8.372;2022-09-09T08:31:08;19.90;99.90
14995;DHT22;7593;49.006;8.372;2022-09-09T08:33:35;19.40;99.90
14995;DHT22;7593;49.006;8.372;2022-09-09T08:36:04;18.90;99.90
14995;DHT22;7593;49.006;8.372;2022-09-09T08:38:32;18.60;99.90
14995;DHT22;7593;49.006;8.372;2022-09-09T08:41:07;18.40;99.90
14995;DHT22;7593;49.006;8.372;2022-09-09T08:43:36;18.20;99.90
14995;DHT22;7593;49.006;8.372;2022-09-09T08:46:10;18.50;99.90
14995;DHT22;7593;49.006;8.372;2022-09-09T08:48:45;19.00;99.90
14995;DHT22;7593;49.006;8.372;2022-09-09T08:51:14;20.20;99.90
14995;DHT22;7593;49.006;8.372;2022-09-09T08:53:43;20.60;99.90
14995;DHT22;7593;49.006;8.372;2022-09-09T08:56:13;20.50;99.90
14995;DHT22;7593;49.006;8.372;2022-09-09T08:58:45;20.10;99.90
14995;DHT22;7593;49.006;8.372;2022-09-09T09:01:37;19.60;99.90
14995;DHT22;7593;49.006;8.372;2022-09-09T09:04:15;19.00;99.90
14995;DHT22;7593;49.006;8.372;2022-09-09T09:06:53;18.30;99.90
14995;DHT22;7593;49.006;8.372;2022-09-09T09:09:24;17.80;99.90
14995;DHT22;7593;49.006;8.372;2022-09-09T09:11:55;17.40;99.90
14995;DHT22;7593;49.006;8.372;2022-09-09T09:14:28;17.30;99.90
14995;DHT22;7593;49.006;8.372;2022-09-09T09:16:59;17.20;99.90
14995;DHT22;7593;49.006;8.372;2022-09-09T09:19:27;17.20;99.90
14995;DHT22;7593;49.006;8.372;2022-09-09T09:21:59;17.30;99.90
14995;DHT22;7593;49.006;8.372;2022-09-09T09:24:48;17.60;99.90
14995;DHT22;7593;49.006;8.372;2022-09-09T09:27:21;18.10;99.90
14995;DHT22;7593;49.006;8.372;2022-09-09T09:29:50;18.40;99.90
14995;DHT22;7593;49.006;8.372;2022-09-09T09:32:20;19.10;99.90
14995;DHT22;7593;49.006;8.372;2022-09-09T09:34:49;19.80;99.90
14995;DHT22;7593;49.006;8.372;2022-09-09T09:37:23;20.30;99.90
14995;DHT22;7593;49.006;8.372;2022-09-09T09:39:53;20.30;99.90
14995;DHT22;7593;49.006;8.372;2022-09-09T09:42:20;20.50;99.90
14995;DHT22;7593;49.006;8.372;2022-09-09T09:44:47;20.60;99.90
14995;DHT22;7593;49.006;8.372;2022-09-09T09:47:16;20.50;99.90
14995;DHT22;7593;49.006;8.372;2022-09-09T09:49:52;20.50;99.90
14995;DHT22;7593;49.006;8.372;2022-09-09T09:52:23;20.60;99.90
14995;DHT22;7593;49.006;8.372;2022-09-09T09:54:50;21.20;99.90
14995;DHT22;7593;49.006;8.372;2022-09-09T09:57:23;21.80;99.90
14995;DHT22;7593;49.006;8.372;2022-09-09T10:00:01;22.50;99.90
14995;DHT22;7593;49.006;8.372;2022-09-09T10:02:37;23.00;99.90
14995;DHT22;7593;49.006;8.372;2022-09-09T10:05:13;23.20;99.90
14995;DHT22;7593;49.006;8.372;2022-09-09T10:07:40;23.00;99.90
14995;DHT22;7593;49.006;8.372;2022-09-09T10:10:20;23.30;99.90
14995;DHT22;7593;49.006;8.372;2022-09-09T10:12:57;23.70;99.90
14995;DHT22;7593;49.006;8.372;2022-09-09T10:15:33;24.20;99.90
14995;DHT22;7593;49.006;8.372;2022-09-09T10:18:16;24.50;99.90
14995;DHT22;7593;49.006;8.372;2022-09-09T10:20:55;24.50;99.90
14995;DHT22;7593;49.006;8.372;2022-09-09T10:23:39;24.50;99.90
14995;DHT22;7593;49.006;8.372;2022-09-09T10:26:25;24.10;99.90
14995;DHT22;7593;49.006;8.372;2022-09-09T10:29:10;23.70;99.90
14995;DHT22;7593;49.006;8.372;2022-09-09T10:31:47;23.20;99.90
14995;DHT22;7593;49.006;8.372;2022-09-09T10:34:22;23.00;99.90
14995;DHT22;7593;49.006;8.372;2022-09-09T10:36:52;22.90;99.90
14995;DHT22;7593;49.006;8.372;2022-09-09T10:39:31;22.80;99.90
14995;DHT22;7593;49.006;8.372;2022-09-09T10:42:04;22.70;99.90
14995;DHT22;7593;49.006;8.372;2022-09-09T10:44:49;22.90;99.90
14995;DHT22;7593;49.006;8.372;2022-09-09T10:47:29;22.90;99.90
14995;DHT22;7593;49.006;8.372;2022-09-09T10:50:32;22.90;99.90
14995;DHT22;7593;49.006;8.372;2022-09-09T10:53:11;23.20;99.90
14995;DHT22;7593;49.006;8.372;2022-09-09T10:55:43;23.70;99.90
14995;DHT22;7593;49.006;8.372;2022-09-09T10:58:13;24.20;99.90
14995;DHT22;7593;49.006;8.372;2022-09-09T11:00:43;24.70;99.90
14995;DHT22;7593;49.006;8.372;2022-09-09T11:03:17;24.80;99.90
14995;DHT22;7593;49.006;8.372;2022-09-09T11:05:47;24.60;99.90
14995;DHT22;7593;49.006;8.372;2022-09-09T11:08:19;24.80;99.90
14995;DHT22;7593;49.006;8.372;2022-09-09T11:10:50;25.10;99.90
14995;DHT22;7593;49.006;8.372;2022-09-09T11:13:23;25.20;99.90
14995;DHT22;7593;49.006;8.372;2022-09-09T11:15:54;25.00;99.90
14995;DHT22;7593;49.006;8.372;2022-09-09T11:18:28;24.80;99.90
14995;DHT22;7593;49.006;8.372;2022-09-09T11:21:00;24.80;99.90
14995;DHT22;7593;49.006;8.372;2022-09-09T11:23:35;25.10;99.90
14995;DHT22;7593;49.006;8.372;2022-09-09T11:26:06;25.00;99.90
14995;DHT22;7593;49.006;8.372;2022-09-09T11:28:46;25.20;99.90
14995;DHT22;7593;49.006;8.372;2022-09-09T11:31:33;25.00;99.90
14995;DHT22;7593;49.006;8.372;2022-09-09T11:34:10;25.50;99.90
14995;DHT22;7593;49.006;8.372;2022-09-09T11:37:14;25.80;99.90
14995;DHT22;7593;49.006;8.372;2022-09-09T11:42:46;26.70;99.90
14995;DHT22;7593;49.006;8.372;2022-09-09T11:45:23;26.90;99.90
14995;DHT22;7593;49.006;8.372;2022-09-09T11:47:54;26.90;99.90
14995;DHT22;7593;49.006;8.372;2022-09-09T11:50:33;27.00;99.90
14995;DHT22;7593;49.006;8.372;2022-09-09T11:56:05;25.50;99.90
14995;DHT22;7593;49.006;8.372;2022-09-09T11:58:38;24.80;99.90
14995;DHT22;7593;49.006;8.372;2022-09-09T12:01:33;24.70;99.90
14995;DHT22;7593;49.006;8.372;2022-09-09T12:04:10;25.00;99.90
14995;DHT22;7593;49.006;8.372;2022-09-09T12:06:43;25.50;99.90
14995;DHT22;7593;49.006;8.372;2022-09-09T12:09:18;25.80;99.90
14995;DHT22;7593;49.006;8.372;2022-09-09T12:11:46;25.90;99.90
14995;DHT22;7593;49.006;8.372;2022-09-09T12:14:21;26.10;99.90
14995;DHT22;7593;49.006;8.372;2022-09-09T12:16:49;25.90;99.90
14995;DHT22;7593;49.006;8.372;2022-09-09T12:19:22;25.10;99.90
14995;DHT22;7593;49.006;8.372;2022-09-09T12:21:54;24.10;99.90
14995;DHT22;7593;49.006;8.372;2022-09-09T12:24:31;23.50;99.90
14995;DHT22;7593;49.006;8.372;2022-09-09T12:27:07;23.00;99.90
14995;DHT22;7593;49.006;8.372;2022-09-09T12:29:44;22.70;99.90
14995;DHT22;7593;49.006;8.372;2022-09-09T12:32:16;22.60;99.90
14995;DHT22;7593;49.006;8.372;2022-09-09T12:34:46;22.60;99.90
14995;DHT22;7593;49.006;8.372;2022-09-09T12:37:18;22.60;99.90
14995;DHT22;7593;49.006;8.372;2022-09-09T12:39:53;22.40;99.90
14995;DHT22;7593;49.006;8.372;2022-09-09T12:42:22;22.40;99.90
14995;DHT22;7593;49.006;8.372;2022-09-09T12:44:55;22.50;99.90
14995;DHT22;7593;49.006;8.372;2022-09-09T12:47:26;22.50;99.90
14995;DHT22;7593;49.006;8.372;2022-09-09T12:49:55;22.60;99.90
14995;DHT22;7593;49.006;8.372;2022-09-09T12:52:26;22.90;99.90
14995;DHT22;7593;49.006;8.372;2022-09-09T12:54:56;23.40;99.90
14995;DHT22;7593;49.006;8.372;2022-09-09T12:57:24;24.00;99.90
14995;DHT22;7593;49.006;8.372;2022-09-09T13:00:03;24.00;99.90
14995;DHT22;7593;49.006;8.372;2022-09-09T13:02:32;23.70;99.90
14995;DHT22;7593;49.006;8.372;2022-09-09T13:05:09;22.40;99.90
14995;DHT22;7593;49.006;8.372;2022-09-09T13:07:39;20.30;99.90
14995;DHT22;7593;49.006;8.372;2022-09-09T13:10:11;19.00;99.90
14995;DHT22;7593;49.006;8.372;2022-09-09T13:12:38;18.40;99.90
14995;DHT22;7593;49.006;8.372;2022-09-09T13:15:13;18.00;99.90
14995;DHT22;7593;49.006;8.372;2022-09-09T13:17:41;17.70;99.90
14995;DHT22;7593;49.006;8.372;2022-09-09T13:20:16;17.70;99.90
14995;DHT22;7593;49.006;8.372;2022-09-09T13:22:43;17.90;99.90
14995;DHT22;7593;49.006;8.372;2022-09-09T13:25:20;18.00;99.90
14995;DHT22;7593;49.006;8.372;2022-09-09T13:27:56;18.20;99.90
14995;DHT22;7593;49.006;8.372;2022-09-09T13:30:27;18.60;99.90
14995;DHT22;7593;49.006;8.372;2022-09-09T13:33:16;19.00;99.90
14995;DHT22;7593;49.006;8.372;2022-09-09T13:35:46;19.80;99.90
14995;DHT22;7593;49.006;8.372;2022-09-09T13:38:14;20.40;99.90
14995;DHT22;7593;49.006;8.372;2022-09-09T13:40:52;20.30;99.90
14995;DHT22;7593;49.006;8.372;2022-09-09T13:43:22;20.30;99.90
14995;DHT22;7593;49.006;8.372;2022-09-09T13:45:55;20.10;99.90
14995;DHT22;7593;49.006;8.372;2022-09-09T13:48:23;19.80;99.90
14995;DHT22;7593;49.006;8.372;2022-09-09T13:50:56;19.60;99.90
14995;DHT22;7593;49.006;8.372;2022-09-09T13:53:22;19.50;99.90
14995;DHT22;7593;49.006;8.372;2022-09-09T13:55:50;19.30;99.90
14995;DHT22;7593;49.006;8.372;2022-09-09T13:58:17;19.10;99.90
14995;DHT22;7593;49.006;8.372;2022-09-09T14:00:45;19.20;99.90
14995;DHT22;7593;49.006;8.372;2022-09-09T14:03:13;19.30;99.90
14995;DHT22;7593;49.006;8.372;2022-09-09T14:05:40;19.20;99.90
14995;DHT22;7593;49.006;8.372;2022-09-09T14:08:14;19.10;99.90
14995;DHT22;7593;49.006;8.372;2022-09-09T14:10:42;19.00;99.90
14995;DHT22;7593;49.006;8.372;2022-09-09T14:13:08;18.90;99.90
14995;DHT22;7593;49.006;8.372;2022-09-09T14:15:36;18.60;99.90
14995;DHT22;7593;49.006;8.372;2022-09-09T14:18:03;18.20;99.90
14995;DHT22;7593;49.006;8.372;2022-09-09T14:20:31;17.60;99.90
14995;DHT22;7593;49.006;8.372;2022-09-09T14:22:58;16.90;99.90
14995;DHT22;7593;49.006;8.372;2022-09-09T14:25:24;16.50;99.90
14995;DHT22;7593;49.006;8.372;2022-09-09T14:27:51;16.30;99.90
14995;DHT22;7593;49.006;8.372;2022-09-09T14:30:18;16.20;99.90
14995;DHT22;7593;49.006;8.372;2022-09-09T14:32:44;16.20;99.90
14995;DHT22;7593;49.006;8.372;2022-09-09T14:35:12;16.20;99.90
14995;DHT22;7593;49.006;8.372;2022-09-09T14:37:40;16.20;99.90
14995;DHT22;7593;49.006;8.372;2022-09-09T14:40:07;16.20;99.90
14995;DHT22;7593;49.006;8.372;2022-09-09T14:42:34;16.30;99.90
14995;DHT22;7593;49.006;8.372;2022-09-09T14:45:01;16.40;99.90
14995;DHT22;7593;49.006;8.372;2022-09-09T14:47:28;16.40;99.90
14995;DHT22;7593;49.006;8.372;2022-09-09T14:49:55;16.50;99.90
14995;DHT22;7593;49.006;8.372;2022-09-09T14:52:22;16.50;99.90
14995;DHT22;7593;49.006;8.372;2022-09-09T14:54:50;16.50;99.90
14995;DHT22;7593;49.006;8.372;2022-09-09T14:57:17;16.30;99.90
14995;DHT22;7593;49.006;8.372;2022-09-09T14:59:44;16.10;99.90
14995;DHT22;7593;49.006;8.372;2022-09-09T15:02:11;15.90;99.90
14995;DHT22;7593;49.006;8.372;2022-09-09T15:04:39;16.00;99.90
14995;DHT22;7593;49.006;8.372;2022-09-09T15:07:06;16.10;99.90
14995;DHT22;7593;49.006;8.372;2022-09-09T15:09:32;16.20;99.90
14995;DHT22;7593;49.006;8.372;2022-09-09T15:12:01;16.30;99.90
14995;DHT22;7593;49.006;8.372;2022-09-09T15:14:28;16.50;99.90
14995;DHT22;7593;49.006;8.372;2022-09-09T15:16:57;16.60;99.90
14995;DHT22;7593;49.006;8.372;2022-09-09T15:19:24;16.70;99.90
14995;DHT22;7593;49.006;8.372;2022-09-09T15:21:50;16.80;99.90
14995;DHT22;7593;49.006;8.372;2022-09-09T15:24:17;16.90;99.90
14995;DHT22;7593;49.006;8.372;2022-09-09T15:26:44;17.10;99.90
14995;DHT22;7593;49.006;8.372;2022-09-09T15:29:12;17.30;99.90
14995;DHT22;7593;49.006;8.372;2022-09-09T15:31:39;17.60;99.90
14995;DHT22;7593;49.006;8.372;2022-09-09T15:34:07;18.00;99.90
14995;DHT22;7593;49.006;8.372;2022-09-09T15:36:36;18.30;99.90
14995;DHT22;7593;49.006;8.372;2022-09-09T15:39:05;18.50;99.90
14995;DHT22;7593;49.006;8.372;2022-09-09T15:41:32;18.50;99.90
14995;DHT22;7593;49.006;8.372;2022-09-09T15:43:59;18.40;99.90
14995;DHT22;7593;49.006;8.372;2022-09-09T15:46:30;18.40;99.90
14995;DHT22;7593;49.006;8.372;2022-09-09T15:49:02;18.50;99.90
14995;DHT22;7593;49.006;8.372;2022-09-09T15:51:29;18.60;99.90
14995;DHT22;7593;49.006;8.372;2022-09-09T15:53:56;18.70;99.90
14995;DHT22;7593;49.006;8.372;2022-09-09T15:56:24;18.60;99.90
14995;DHT22;7593;49.006;8.372;2022-09-09T15:58:50;18.50;99.90
14995;DHT22;7593;49.006;8.372;2022-09-09T16:01:18;18.30;99.90
14995;DHT22;7593;49.006;8.372;2022-09-09T16:03:46;18.10;99.90
14995;DHT22;7593;49.006;8.372;2022-09-09T16:06:15;17.70;99.90
14995;DHT22;7593;49.006;8.372;2022-09-09T16:08:45;17.40;99.90
14995;DHT22;7593;49.006;8.372;2022-09-09T16:11:13;17.20;99.90
14995;DHT22;7593;49.006;8.372;2022-09-09T16:13:41;17.00;99.90